sensor_id;sensor_type;location;lat;lon;timestamp;P1;durP1;ratioP1;P2;durP2;ratioP2
18754;SDS011;35061;47.664;9.166;2023-06-22T00:00:34;9.57;;;6.15;;
18754;SDS011;35061;47.664;9.166;2023-06-22T00:03:02;8.32;;;6.40;;
18754;SDS011;35061;47.664;9.166;2023-06-22T00:05:30;7.72;;;5.87;;
18754;SDS011;35061;47.664;9.166;2023-06-22T00:08:01;8.10;;;6.82;;
18754;SDS011;35061;47.664;9.166;2023-06-22T00:10:31;8.60;;;6.82;;
18754;SDS011;35061;47.664;9.166;2023-06-22T00:12:59;7.47;;;6.20;;
18754;SDS011;35061;47.664;9.166;2023-06-22T00:15:27;9.82;;;6.55;;
18754;SDS011;35061;47.664;9.166;2023-06-22T00:17:55;8.98;;;6.32;;
18754;SDS011;35061;47.664;9.166;2023-06-22T00:20:25;7.93;;;6.00;;
18754;SDS011;35061;47.664;9.166;2023-06-22T00:22:58;8.48;;;6.05;;
18754;SDS011;35061;47.664;9.166;2023-06-22T00:25:27;10.27;;;7.05;;
18754;SDS011;35061;47.664;9.166;2023-06-22T00:27:54;12.37;;;6.90;;
18754;SDS011;35061;47.664;9.166;2023-06-22T00:30:22;9.65;;;6.95;;
18754;SDS011;35061;47.664;9.166;2023-06-22T00:32:50;10.90;;;7.62;;
18754;SDS011;35061;47.664;9.166;2023-06-22T00:35:18;10.18;;;6.82;;
18754;SDS011;35061;47.664;9.166;2023-06-22T00:37:46;11.43;;;7.40;;
18754;SDS011;35061;47.664;9.166;2023-06-22T00:40:14;11.02;;;7.00;;
18754;SDS011;35061;47.664;9.166;2023-06-22T00:42:44;10.88;;;7.35;;
18754;SDS011;35061;47.664;9.166;2023-06-22T00:45:12;8.45;;;7.25;;
18754;SDS011;35061;47.664;9.166;2023-06-22T00:47:39;10.27;;;7.85;;
18754;SDS011;35061;47.664;9.166;2023-06-22T00:50:07;13.62;;;7.90;;
18754;SDS011;35061;47.664;9.166;2023-06-22T00:52:37;9.73;;;7.57;;
18754;SDS011;35061;47.664;9.166;2023-06-22T00:55:10;11.68;;;7.62;;
18754;SDS011;35061;47.664;9.166;2023-06-22T00:57:38;12.70;;;7.82;;
18754;SDS011;35061;47.664;9.166;2023-06-22T01:00:07;8.63;;;6.78;;
18754;SDS011;35061;47.664;9.166;2023-06-22T01:02:38;8.73;;;7.30;;
18754;SDS011;35061;47.664;9.166;2023-06-22T01:05:06;9.02;;;6.72;;
18754;SDS011;35061;47.664;9.166;2023-06-22T01:07:35;11.82;;;7.82;;
18754;SDS011;35061;47.664;9.166;2023-06-22T01:13:25;10.10;;;7.47;;
18754;SDS011;35061;47.664;9.166;2023-06-22T01:16:02;9.32;;;7.72;;
18754;SDS011;35061;47.664;9.166;2023-06-22T01:18:33;12.15;;;7.95;;
18754;SDS011;35061;47.664;9.166;2023-06-22T01:21:04;11.50;;;7.35;;
18754;SDS011;35061;47.664;9.166;2023-06-22T01:26:39;12.15;;;7.95;;
18754;SDS011;35061;47.664;9.166;2023-06-22T01:29:11;9.25;;;6.97;;
18754;SDS011;35061;47.664;9.166;2023-06-22T01:31:41;9.00;;;7.45;;
18754;SDS011;35061;47.664;9.166;2023-06-22T01:34:11;10.80;;;7.47;;
18754;SDS011;35061;47.664;9.166;2023-06-22T01:36:40;13.23;;;8.02;;
18754;SDS011;35061;47.664;9.166;2023-06-22T01:39:09;13.73;;;7.35;;
18754;SDS011;35061;47.664;9.166;2023-06-22T01:41:39;11.77;;;7.90;;
18754;SDS011;35061;47.664;9.166;2023-06-22T01:44:09;8.52;;;6.60;;
18754;SDS011;35061;47.664;9.166;2023-06-22T01:46:38;12.30;;;7.57;;
18754;SDS011;35061;47.664;9.166;2023-06-22T01:49:07;10.95;;;7.22;;
18754;SDS011;35061;47.664;9.166;2023-06-22T01:51:36;10.63;;;7.10;;
18754;SDS011;35061;47.664;9.166;2023-06-22T01:54:05;13.05;;;6.90;;
18754;SDS011;35061;47.664;9.166;2023-06-22T01:56:35;10.32;;;7.50;;
18754;SDS011;35061;47.664;9.166;2023-06-22T01:59:11;10.25;;;6.65;;
18754;SDS011;35061;47.664;9.166;2023-06-22T02:01:51;13.35;;;6.65;;
18754;SDS011;35061;47.664;9.166;2023-06-22T02:04:51;10.60;;;6.78;;
18754;SDS011;35061;47.664;9.166;2023-06-22T02:07:24;9.85;;;6.78;;
18754;SDS011;35061;47.664;9.166;2023-06-22T02:10:00;10.48;;;7.72;;
18754;SDS011;35061;47.664;9.166;2023-06-22T02:12:31;10.27;;;7.07;;
18754;SDS011;35061;47.664;9.166;2023-06-22T02:15:01;10.75;;;7.35;;
18754;SDS011;35061;47.664;9.166;2023-06-22T02:17:29;11.32;;;7.47;;
18754;SDS011;35061;47.664;9.166;2023-06-22T02:20:03;10.48;;;6.97;;
18754;SDS011;35061;47.664;9.166;2023-06-22T02:22:36;10.05;;;6.85;;
18754;SDS011;35061;47.664;9.166;2023-06-22T02:25:04;11.07;;;6.68;;
18754;SDS011;35061;47.664;9.166;2023-06-22T02:27:32;14.57;;;7.30;;
18754;SDS011;35061;47.664;9.166;2023-06-22T02:30:00;10.65;;;7.53;;
18754;SDS011;35061;47.664;9.166;2023-06-22T02:32:28;10.20;;;6.57;;
18754;SDS011;35061;47.664;9.166;2023-06-22T02:34:56;13.82;;;7.47;;
18754;SDS011;35061;47.664;9.166;2023-06-22T02:37:23;10.95;;;7.15;;
18754;SDS011;35061;47.664;9.166;2023-06-22T02:39:52;7.93;;;6.40;;
18754;SDS011;35061;47.664;9.166;2023-06-22T02:42:20;9.45;;;7.10;;
18754;SDS011;35061;47.664;9.166;2023-06-22T02:44:49;11.60;;;6.40;;
18754;SDS011;35061;47.664;9.166;2023-06-22T02:47:17;8.85;;;7.12;;
18754;SDS011;35061;47.664;9.166;2023-06-22T02:49:45;9.60;;;6.82;;
18754;SDS011;35061;47.664;9.166;2023-06-22T02:52:14;10.88;;;7.60;;
18754;SDS011;35061;47.664;9.166;2023-06-22T02:54:42;11.18;;;8.10;;
18754;SDS011;35061;47.664;9.166;2023-06-22T02:57:10;10.13;;;7.10;;
18754;SDS011;35061;47.664;9.166;2023-06-22T02:59:41;12.13;;;7.40;;
18754;SDS011;35061;47.664;9.166;2023-06-22T03:02:09;11.40;;;7.57;;
18754;SDS011;35061;47.664;9.166;2023-06-22T03:04:38;10.10;;;6.97;;
18754;SDS011;35061;47.664;9.166;2023-06-22T03:07:06;14.23;;;7.50;;
18754;SDS011;35061;47.664;9.166;2023-06-22T03:09:34;10.18;;;7.10;;
18754;SDS011;35061;47.664;9.166;2023-06-22T03:12:02;12.95;;;7.00;;
18754;SDS011;35061;47.664;9.166;2023-06-22T03:14:30;11.95;;;7.25;;
18754;SDS011;35061;47.664;9.166;2023-06-22T03:16:58;8.02;;;6.60;;
18754;SDS011;35061;47.664;9.166;2023-06-22T03:19:30;9.50;;;6.55;;
18754;SDS011;35061;47.664;9.166;2023-06-22T03:21:59;7.30;;;5.78;;
18754;SDS011;35061;47.664;9.166;2023-06-22T03:24:28;9.23;;;6.82;;
18754;SDS011;35061;47.664;9.166;2023-06-22T03:26:57;11.68;;;7.43;;
18754;SDS011;35061;47.664;9.166;2023-06-22T03:29:25;12.55;;;7.53;;
18754;SDS011;35061;47.664;9.166;2023-06-22T03:31:56;10.18;;;7.43;;
18754;SDS011;35061;47.664;9.166;2023-06-22T03:34:24;9.85;;;6.50;;
18754;SDS011;35061;47.664;9.166;2023-06-22T03:36:52;8.63;;;6.70;;
18754;SDS011;35061;47.664;9.166;2023-06-22T03:39:20;11.40;;;8.05;;
18754;SDS011;35061;47.664;9.166;2023-06-22T03:41:48;11.93;;;7.90;;
18754;SDS011;35061;47.664;9.166;2023-06-22T03:44:16;14.25;;;8.07;;
18754;SDS011;35061;47.664;9.166;2023-06-22T03:46:44;11.48;;;7.18;;
18754;SDS011;35061;47.664;9.166;2023-06-22T03:49:12;9.30;;;6.78;;
18754;SDS011;35061;47.664;9.166;2023-06-22T03:51:40;11.38;;;7.43;;
18754;SDS011;35061;47.664;9.166;2023-06-22T03:54:08;10.07;;;7.07;;
18754;SDS011;35061;47.664;9.166;2023-06-22T03:56:36;11.38;;;6.82;;
18754;SDS011;35061;47.664;9.166;2023-06-22T03:59:04;11.32;;;6.87;;
18754;SDS011;35061;47.664;9.166;2023-06-22T04:01:32;11.63;;;7.18;;
18754;SDS011;35061;47.664;9.166;2023-06-22T04:04:00;12.93;;;7.03;;
18754;SDS011;35061;47.664;9.166;2023-06-22T04:06:28;13.95;;;7.03;;
18754;SDS011;35061;47.664;9.166;2023-06-22T04:08:56;11.63;;;7.47;;
18754;SDS011;35061;47.664;9.166;2023-06-22T04:11:24;13.45;;;6.93;;
18754;SDS011;35061;47.664;9.166;2023-06-22T04:13:52;14.00;;;6.57;;
18754;SDS011;35061;47.664;9.166;2023-06-22T04:16:21;9.00;;;6.45;;
18754;SDS011;35061;47.664;9.166;2023-06-22T04:18:48;12.18;;;7.35;;
18754;SDS011;35061;47.664;9.166;2023-06-22T04:21:16;9.32;;;6.43;;
18754;SDS011;35061;47.664;9.166;2023-06-22T04:23:47;10.10;;;6.45;;
18754;SDS011;35061;47.664;9.166;2023-06-22T04:26:14;10.77;;;6.87;;
18754;SDS011;35061;47.664;9.166;2023-06-22T04:28:42;11.02;;;7.35;;
18754;SDS011;35061;47.664;9.166;2023-06-22T04:31:10;10.55;;;7.12;;
18754;SDS011;35061;47.664;9.166;2023-06-22T04:33:39;10.45;;;7.03;;
18754;SDS011;35061;47.664;9.166;2023-06-22T04:36:08;7.80;;;6.95;;
18754;SDS011;35061;47.664;9.166;2023-06-22T04:38:36;12.93;;;8.20;;
18754;SDS011;35061;47.664;9.166;2023-06-22T04:41:04;9.38;;;6.40;;
18754;SDS011;35061;47.664;9.166;2023-06-22T04:43:33;11.12;;;6.93;;
18754;SDS011;35061;47.664;9.166;2023-06-22T04:46:01;13.57;;;7.03;;
18754;SDS011;35061;47.664;9.166;2023-06-22T04:48:30;13.35;;;7.45;;
18754;SDS011;35061;47.664;9.166;2023-06-22T04:51:01;12.70;;;6.70;;
18754;SDS011;35061;47.664;9.166;2023-06-22T04:53:31;9.85;;;8.13;;
18754;SDS011;35061;47.664;9.166;2023-06-22T04:55:59;11.82;;;7.78;;
18754;SDS011;35061;47.664;9.166;2023-06-22T04:58:27;12.85;;;7.18;;
18754;SDS011;35061;47.664;9.166;2023-06-22T05:00:56;10.60;;;7.45;;
18754;SDS011;35061;47.664;9.166;2023-06-22T05:03:25;10.43;;;6.40;;
18754;SDS011;35061;47.664;9.166;2023-06-22T05:05:54;15.70;;;7.62;;
18754;SDS011;35061;47.664;9.166;2023-06-22T05:08:22;12.30;;;8.07;;
18754;SDS011;35061;47.664;9.166;2023-06-22T05:10:54;11.70;;;7.90;;
18754;SDS011;35061;47.664;9.166;2023-06-22T05:13:31;11.82;;;8.05;;
18754;SDS011;35061;47.664;9.166;2023-06-22T05:15:59;10.80;;;7.70;;
18754;SDS011;35061;47.664;9.166;2023-06-22T05:18:30;9.80;;;7.35;;
18754;SDS011;35061;47.664;9.166;2023-06-22T05:20:59;11.75;;;7.93;;
18754;SDS011;35061;47.664;9.166;2023-06-22T05:23:27;10.68;;;7.78;;
18754;SDS011;35061;47.664;9.166;2023-06-22T05:25:55;12.48;;;8.25;;
18754;SDS011;35061;47.664;9.166;2023-06-22T05:28:25;13.25;;;8.98;;
18754;SDS011;35061;47.664;9.166;2023-06-22T05:30:53;8.98;;;6.90;;
18754;SDS011;35061;47.664;9.166;2023-06-22T05:33:21;12.48;;;8.65;;
18754;SDS011;35061;47.664;9.166;2023-06-22T05:35:49;11.30;;;6.97;;
18754;SDS011;35061;47.664;9.166;2023-06-22T05:38:17;12.93;;;7.72;;
18754;SDS011;35061;47.664;9.166;2023-06-22T05:40:45;9.90;;;7.28;;
18754;SDS011;35061;47.664;9.166;2023-06-22T05:43:13;10.25;;;6.65;;
18754;SDS011;35061;47.664;9.166;2023-06-22T05:45:41;11.40;;;7.45;;
18754;SDS011;35061;47.664;9.166;2023-06-22T05:48:09;11.43;;;7.47;;
18754;SDS011;35061;47.664;9.166;2023-06-22T05:50:37;12.32;;;6.95;;
18754;SDS011;35061;47.664;9.166;2023-06-22T05:53:06;11.75;;;6.93;;
18754;SDS011;35061;47.664;9.166;2023-06-22T05:55:34;10.18;;;6.82;;
18754;SDS011;35061;47.664;9.166;2023-06-22T05:58:02;9.98;;;7.10;;
18754;SDS011;35061;47.664;9.166;2023-06-22T06:00:33;12.10;;;7.25;;
18754;SDS011;35061;47.664;9.166;2023-06-22T06:03:01;14.15;;;7.32;;
18754;SDS011;35061;47.664;9.166;2023-06-22T06:05:31;9.55;;;7.35;;
18754;SDS011;35061;47.664;9.166;2023-06-22T06:08:00;9.98;;;6.45;;
18754;SDS011;35061;47.664;9.166;2023-06-22T06:10:29;10.88;;;6.15;;
18754;SDS011;35061;47.664;9.166;2023-06-22T06:12:58;12.57;;;8.40;;
18754;SDS011;35061;47.664;9.166;2023-06-22T06:15:26;10.43;;;7.50;;
18754;SDS011;35061;47.664;9.166;2023-06-22T06:17:54;9.85;;;6.78;;
18754;SDS011;35061;47.664;9.166;2023-06-22T06:20:23;11.35;;;6.55;;
18754;SDS011;35061;47.664;9.166;2023-06-22T06:22:52;11.15;;;7.45;;
18754;SDS011;35061;47.664;9.166;2023-06-22T06:25:20;11.43;;;7.45;;
18754;SDS011;35061;47.664;9.166;2023-06-22T06:27:50;11.80;;;7.40;;
18754;SDS011;35061;47.664;9.166;2023-06-22T06:30:18;10.98;;;7.32;;
18754;SDS011;35061;47.664;9.166;2023-06-22T06:32:46;8.98;;;6.37;;
18754;SDS011;35061;47.664;9.166;2023-06-22T06:35:15;12.10;;;7.05;;
18754;SDS011;35061;47.664;9.166;2023-06-22T06:37:45;10.65;;;6.60;;
18754;SDS011;35061;47.664;9.166;2023-06-22T06:40:16;10.70;;;6.72;;
18754;SDS011;35061;47.664;9.166;2023-06-22T06:42:46;7.53;;;6.70;;
18754;SDS011;35061;47.664;9.166;2023-06-22T06:45:17;13.07;;;6.90;;
18754;SDS011;35061;47.664;9.166;2023-06-22T06:47:47;12.73;;;6.47;;
18754;SDS011;35061;47.664;9.166;2023-06-22T06:50:15;11.32;;;7.25;;
18754;SDS011;35061;47.664;9.166;2023-06-22T06:52:43;15.10;;;7.00;;
18754;SDS011;35061;47.664;9.166;2023-06-22T06:55:12;13.82;;;7.12;;
18754;SDS011;35061;47.664;9.166;2023-06-22T06:57:41;9.60;;;6.80;;
18754;SDS011;35061;47.664;9.166;2023-06-22T07:00:12;11.95;;;7.87;;
18754;SDS011;35061;47.664;9.166;2023-06-22T07:02:41;11.75;;;6.95;;
18754;SDS011;35061;47.664;9.166;2023-06-22T07:05:11;11.48;;;7.70;;
18754;SDS011;35061;47.664;9.166;2023-06-22T07:07:40;8.00;;;6.37;;
18754;SDS011;35061;47.664;9.166;2023-06-22T07:10:09;12.27;;;7.18;;
18754;SDS011;35061;47.664;9.166;2023-06-22T07:12:38;11.57;;;6.50;;
18754;SDS011;35061;47.664;9.166;2023-06-22T07:15:07;10.15;;;6.68;;
18754;SDS011;35061;47.664;9.166;2023-06-22T07:17:36;11.25;;;7.10;;
18754;SDS011;35061;47.664;9.166;2023-06-22T07:20:05;13.52;;;6.28;;
18754;SDS011;35061;47.664;9.166;2023-06-22T07:22:37;10.93;;;6.75;;
18754;SDS011;35061;47.664;9.166;2023-06-22T07:25:06;13.00;;;7.35;;
18754;SDS011;35061;47.664;9.166;2023-06-22T07:27:38;9.10;;;7.55;;
18754;SDS011;35061;47.664;9.166;2023-06-22T07:30:10;11.63;;;7.45;;
18754;SDS011;35061;47.664;9.166;2023-06-22T07:32:39;11.05;;;7.30;;
18754;SDS011;35061;47.664;9.166;2023-06-22T07:35:08;12.23;;;6.95;;
18754;SDS011;35061;47.664;9.166;2023-06-22T07:37:37;14.35;;;7.40;;
18754;SDS011;35061;47.664;9.166;2023-06-22T07:40:05;9.93;;;7.25;;
18754;SDS011;35061;47.664;9.166;2023-06-22T07:42:34;10.98;;;7.53;;
18754;SDS011;35061;47.664;9.166;2023-06-22T07:45:02;11.20;;;7.30;;
18754;SDS011;35061;47.664;9.166;2023-06-22T07:47:31;11.55;;;7.45;;
18754;SDS011;35061;47.664;9.166;2023-06-22T07:50:03;11.20;;;6.90;;
18754;SDS011;35061;47.664;9.166;2023-06-22T07:52:31;8.88;;;6.47;;
18754;SDS011;35061;47.664;9.166;2023-06-22T07:55:00;12.30;;;7.32;;
18754;SDS011;35061;47.664;9.166;2023-06-22T07:57:28;10.48;;;6.90;;
18754;SDS011;35061;47.664;9.166;2023-06-22T08:00:03;12.15;;;7.80;;
18754;SDS011;35061;47.664;9.166;2023-06-22T08:02:45;10.27;;;6.87;;
18754;SDS011;35061;47.664;9.166;2023-06-22T08:05:14;11.20;;;7.05;;
18754;SDS011;35061;47.664;9.166;2023-06-22T08:07:48;10.35;;;7.20;;
18754;SDS011;35061;47.664;9.166;2023-06-22T08:10:17;9.82;;;7.95;;
18754;SDS011;35061;47.664;9.166;2023-06-22T08:12:45;11.57;;;6.70;;
18754;SDS011;35061;47.664;9.166;2023-06-22T08:15:13;10.05;;;6.95;;
18754;SDS011;35061;47.664;9.166;2023-06-22T08:17:41;9.63;;;6.37;;
18754;SDS011;35061;47.664;9.166;2023-06-22T08:20:09;8.15;;;5.93;;
18754;SDS011;35061;47.664;9.166;2023-06-22T08:22:41;10.43;;;6.37;;
18754;SDS011;35061;47.664;9.166;2023-06-22T08:25:10;12.50;;;7.68;;
18754;SDS011;35061;47.664;9.166;2023-06-22T08:27:38;9.80;;;7.43;;
18754;SDS011;35061;47.664;9.166;2023-06-22T08:30:06;13.07;;;7.85;;
18754;SDS011;35061;47.664;9.166;2023-06-22T08:32:38;7.85;;;6.90;;
18754;SDS011;35061;47.664;9.166;2023-06-22T08:35:06;11.55;;;7.28;;
18754;SDS011;35061;47.664;9.166;2023-06-22T08:37:38;12.25;;;7.05;;
18754;SDS011;35061;47.664;9.166;2023-06-22T08:40:07;11.27;;;6.85;;
18754;SDS011;35061;47.664;9.166;2023-06-22T08:42:37;11.68;;;7.62;;
18754;SDS011;35061;47.664;9.166;2023-06-22T08:45:08;10.35;;;6.70;;
18754;SDS011;35061;47.664;9.166;2023-06-22T08:47:36;7.70;;;6.32;;
18754;SDS011;35061;47.664;9.166;2023-06-22T08:50:05;11.10;;;7.20;;
18754;SDS011;35061;47.664;9.166;2023-06-22T08:52:35;9.23;;;7.28;;
18754;SDS011;35061;47.664;9.166;2023-06-22T08:55:04;11.35;;;7.28;;
18754;SDS011;35061;47.664;9.166;2023-06-22T08:57:32;10.70;;;8.20;;
18754;SDS011;35061;47.664;9.166;2023-06-22T09:00:00;10.38;;;8.35;;
18754;SDS011;35061;47.664;9.166;2023-06-22T09:02:28;14.50;;;8.88;;
18754;SDS011;35061;47.664;9.166;2023-06-22T09:04:59;11.77;;;8.00;;
18754;SDS011;35061;47.664;9.166;2023-06-22T09:07:27;17.40;;;8.48;;
18754;SDS011;35061;47.664;9.166;2023-06-22T09:09:55;10.63;;;8.43;;
18754;SDS011;35061;47.664;9.166;2023-06-22T09:12:27;12.13;;;7.95;;
18754;SDS011;35061;47.664;9.166;2023-06-22T09:15:00;13.50;;;8.10;;
18754;SDS011;35061;47.664;9.166;2023-06-22T09:17:30;10.20;;;7.50;;
18754;SDS011;35061;47.664;9.166;2023-06-22T09:19:58;10.60;;;8.55;;
18754;SDS011;35061;47.664;9.166;2023-06-22T09:22:27;9.50;;;7.20;;
18754;SDS011;35061;47.664;9.166;2023-06-22T09:24:56;10.35;;;7.65;;
18754;SDS011;35061;47.664;9.166;2023-06-22T09:27:25;9.93;;;7.37;;
18754;SDS011;35061;47.664;9.166;2023-06-22T09:29:53;13.98;;;8.02;;
18754;SDS011;35061;47.664;9.166;2023-06-22T09:32:21;8.30;;;7.10;;
18754;SDS011;35061;47.664;9.166;2023-06-22T09:34:49;12.90;;;9.48;;
18754;SDS011;35061;47.664;9.166;2023-06-22T09:37:17;16.30;;;11.52;;
18754;SDS011;35061;47.664;9.166;2023-06-22T09:39:45;14.63;;;8.40;;
18754;SDS011;35061;47.664;9.166;2023-06-22T09:42:13;11.45;;;9.15;;
18754;SDS011;35061;47.664;9.166;2023-06-22T09:44:41;9.75;;;7.78;;
18754;SDS011;35061;47.664;9.166;2023-06-22T09:47:09;10.77;;;7.43;;
18754;SDS011;35061;47.664;9.166;2023-06-22T09:49:36;13.30;;;8.15;;
18754;SDS011;35061;47.664;9.166;2023-06-22T09:52:13;10.98;;;7.28;;
18754;SDS011;35061;47.664;9.166;2023-06-22T09:54:42;13.07;;;7.07;;
18754;SDS011;35061;47.664;9.166;2023-06-22T09:57:10;12.45;;;8.30;;
18754;SDS011;35061;47.664;9.166;2023-06-22T09:59:38;11.45;;;7.45;;
18754;SDS011;35061;47.664;9.166;2023-06-22T10:02:07;10.32;;;7.95;;
18754;SDS011;35061;47.664;9.166;2023-06-22T10:04:36;11.90;;;7.85;;
18754;SDS011;35061;47.664;9.166;2023-06-22T10:07:04;8.90;;;6.55;;
18754;SDS011;35061;47.664;9.166;2023-06-22T10:09:32;11.70;;;7.40;;
18754;SDS011;35061;47.664;9.166;2023-06-22T10:12:00;10.48;;;7.12;;
18754;SDS011;35061;47.664;9.166;2023-06-22T10:14:28;9.45;;;7.68;;
18754;SDS011;35061;47.664;9.166;2023-06-22T10:16:57;10.75;;;6.85;;
18754;SDS011;35061;47.664;9.166;2023-06-22T10:19:25;9.98;;;7.32;;
18754;SDS011;35061;47.664;9.166;2023-06-22T10:21:53;14.00;;;7.85;;
18754;SDS011;35061;47.664;9.166;2023-06-22T10:24:22;10.27;;;6.60;;
18754;SDS011;35061;47.664;9.166;2023-06-22T10:26:50;10.00;;;6.30;;
18754;SDS011;35061;47.664;9.166;2023-06-22T10:29:19;9.60;;;6.35;;
18754;SDS011;35061;47.664;9.166;2023-06-22T10:31:47;13.05;;;6.47;;
18754;SDS011;35061;47.664;9.166;2023-06-22T10:34:15;11.48;;;7.10;;
18754;SDS011;35061;47.664;9.166;2023-06-22T10:36:43;7.90;;;6.25;;
18754;SDS011;35061;47.664;9.166;2023-06-22T10:39:13;9.68;;;6.47;;
18754;SDS011;35061;47.664;9.166;2023-06-22T10:41:42;10.77;;;6.60;;
18754;SDS011;35061;47.664;9.166;2023-06-22T10:44:10;12.18;;;7.30;;
18754;SDS011;35061;47.664;9.166;2023-06-22T10:46:39;18.17;;;7.65;;
18754;SDS011;35061;47.664;9.166;2023-06-22T10:49:07;10.60;;;6.78;;
18754;SDS011;35061;47.664;9.166;2023-06-22T10:51:35;10.82;;;6.60;;
18754;SDS011;35061;47.664;9.166;2023-06-22T10:54:03;8.68;;;6.70;;
18754;SDS011;35061;47.664;9.166;2023-06-22T10:56:32;11.65;;;6.95;;
18754;SDS011;35061;47.664;9.166;2023-06-22T10:59:01;8.38;;;7.20;;
18754;SDS011;35061;47.664;9.166;2023-06-22T11:01:29;13.98;;;7.72;;
18754;SDS011;35061;47.664;9.166;2023-06-22T11:04:02;12.40;;;7.10;;
18754;SDS011;35061;47.664;9.166;2023-06-22T11:06:31;12.77;;;7.50;;
18754;SDS011;35061;47.664;9.166;2023-06-22T11:08:59;12.00;;;7.37;;
18754;SDS011;35061;47.664;9.166;2023-06-22T11:11:42;11.27;;;6.87;;
18754;SDS011;35061;47.664;9.166;2023-06-22T11:14:11;13.07;;;8.00;;
18754;SDS011;35061;47.664;9.166;2023-06-22T11:16:39;10.63;;;7.75;;
18754;SDS011;35061;47.664;9.166;2023-06-22T11:19:07;10.15;;;8.27;;
18754;SDS011;35061;47.664;9.166;2023-06-22T11:21:34;12.37;;;7.85;;
18754;SDS011;35061;47.664;9.166;2023-06-22T11:24:02;9.35;;;7.00;;
18754;SDS011;35061;47.664;9.166;2023-06-22T11:26:31;12.65;;;7.03;;
18754;SDS011;35061;47.664;9.166;2023-06-22T11:29:02;10.23;;;8.15;;
18754;SDS011;35061;47.664;9.166;2023-06-22T11:31:34;8.48;;;7.53;;
18754;SDS011;35061;47.664;9.166;2023-06-22T11:34:02;11.75;;;8.55;;
18754;SDS011;35061;47.664;9.166;2023-06-22T11:36:30;11.43;;;7.97;;
18754;SDS011;35061;47.664;9.166;2023-06-22T11:39:00;10.68;;;8.10;;
18754;SDS011;35061;47.664;9.166;2023-06-22T11:41:28;10.88;;;7.78;;
18754;SDS011;35061;47.664;9.166;2023-06-22T11:43:56;10.77;;;8.50;;
18754;SDS011;35061;47.664;9.166;2023-06-22T11:46:24;12.15;;;8.57;;
18754;SDS011;35061;47.664;9.166;2023-06-22T11:48:53;11.48;;;8.93;;
18754;SDS011;35061;47.664;9.166;2023-06-22T11:51:21;12.45;;;8.18;;
18754;SDS011;35061;47.664;9.166;2023-06-22T11:53:48;13.70;;;7.87;;
18754;SDS011;35061;47.664;9.166;2023-06-22T11:56:16;12.10;;;8.38;;
18754;SDS011;35061;47.664;9.166;2023-06-22T11:58:44;14.05;;;8.60;;
18754;SDS011;35061;47.664;9.166;2023-06-22T12:01:12;11.35;;;7.72;;
18754;SDS011;35061;47.664;9.166;2023-06-22T12:03:42;14.07;;;9.10;;
18754;SDS011;35061;47.664;9.166;2023-06-22T12:06:11;9.70;;;7.40;;
18754;SDS011;35061;47.664;9.166;2023-06-22T12:08:39;11.10;;;8.07;;
18754;SDS011;35061;47.664;9.166;2023-06-22T12:11:07;12.82;;;8.07;;
18754;SDS011;35061;47.664;9.166;2023-06-22T12:13:35;12.85;;;7.68;;
18754;SDS011;35061;47.664;9.166;2023-06-22T12:16:03;10.73;;;7.10;;
18754;SDS011;35061;47.664;9.166;2023-06-22T12:18:32;12.55;;;7.37;;
18754;SDS011;35061;47.664;9.166;2023-06-22T12:21:00;9.52;;;6.80;;
18754;SDS011;35061;47.664;9.166;2023-06-22T12:23:28;8.85;;;7.20;;
18754;SDS011;35061;47.664;9.166;2023-06-22T12:25:56;9.52;;;7.10;;
18754;SDS011;35061;47.664;9.166;2023-06-22T12:28:24;12.27;;;7.45;;
18754;SDS011;35061;47.664;9.166;2023-06-22T12:30:52;11.93;;;7.82;;
18754;SDS011;35061;47.664;9.166;2023-06-22T12:33:20;13.82;;;7.57;;
18754;SDS011;35061;47.664;9.166;2023-06-22T12:35:48;11.20;;;7.65;;
18754;SDS011;35061;47.664;9.166;2023-06-22T12:38:16;15.73;;;9.10;;
18754;SDS011;35061;47.664;9.166;2023-06-22T12:40:44;10.82;;;7.97;;
18754;SDS011;35061;47.664;9.166;2023-06-22T12:43:14;10.65;;;8.15;;
18754;SDS011;35061;47.664;9.166;2023-06-22T12:45:42;9.63;;;7.50;;
18754;SDS011;35061;47.664;9.166;2023-06-22T12:48:10;10.43;;;7.93;;
18754;SDS011;35061;47.664;9.166;2023-06-22T12:50:40;13.95;;;8.63;;
18754;SDS011;35061;47.664;9.166;2023-06-22T12:53:08;11.35;;;7.78;;
18754;SDS011;35061;47.664;9.166;2023-06-22T12:55:36;9.93;;;7.20;;
18754;SDS011;35061;47.664;9.166;2023-06-22T12:58:04;11.63;;;6.95;;
18754;SDS011;35061;47.664;9.166;2023-06-22T13:00:32;10.60;;;6.87;;
18754;SDS011;35061;47.664;9.166;2023-06-22T13:03:00;9.60;;;6.82;;
18754;SDS011;35061;47.664;9.166;2023-06-22T13:05:28;12.02;;;7.10;;
18754;SDS011;35061;47.664;9.166;2023-06-22T13:07:56;12.65;;;7.05;;
18754;SDS011;35061;47.664;9.166;2023-06-22T13:10:24;11.95;;;7.25;;
18754;SDS011;35061;47.664;9.166;2023-06-22T13:12:53;11.40;;;7.22;;
18754;SDS011;35061;47.664;9.166;2023-06-22T13:15:28;11.82;;;7.12;;
18754;SDS011;35061;47.664;9.166;2023-06-22T13:17:57;13.00;;;7.85;;
18754;SDS011;35061;47.664;9.166;2023-06-22T13:20:24;9.27;;;7.15;;
18754;SDS011;35061;47.664;9.166;2023-06-22T13:22:52;9.20;;;7.12;;
18754;SDS011;35061;47.664;9.166;2023-06-22T13:25:21;14.80;;;7.43;;
18754;SDS011;35061;47.664;9.166;2023-06-22T13:27:51;12.63;;;7.47;;
18754;SDS011;35061;47.664;9.166;2023-06-22T13:30:19;10.32;;;7.45;;
18754;SDS011;35061;47.664;9.166;2023-06-22T13:32:47;9.60;;;7.45;;
18754;SDS011;35061;47.664;9.166;2023-06-22T13:35:15;8.07;;;6.85;;
18754;SDS011;35061;47.664;9.166;2023-06-22T13:37:43;10.63;;;6.85;;
18754;SDS011;35061;47.664;9.166;2023-06-22T13:40:11;10.57;;;6.85;;
18754;SDS011;35061;47.664;9.166;2023-06-22T13:42:39;11.63;;;7.03;;
18754;SDS011;35061;47.664;9.166;2023-06-22T13:45:08;11.30;;;7.15;;
18754;SDS011;35061;47.664;9.166;2023-06-22T13:47:36;10.98;;;7.80;;
18754;SDS011;35061;47.664;9.166;2023-06-22T13:50:05;12.63;;;7.65;;
18754;SDS011;35061;47.664;9.166;2023-06-22T13:52:33;7.85;;;7.03;;
18754;SDS011;35061;47.664;9.166;2023-06-22T13:55:02;10.85;;;6.95;;
18754;SDS011;35061;47.664;9.166;2023-06-22T13:57:30;8.05;;;6.80;;
18754;SDS011;35061;47.664;9.166;2023-06-22T13:59:58;11.18;;;6.93;;
18754;SDS011;35061;47.664;9.166;2023-06-22T14:02:26;10.10;;;7.12;;
18754;SDS011;35061;47.664;9.166;2023-06-22T14:04:54;9.55;;;6.18;;
18754;SDS011;35061;47.664;9.166;2023-06-22T14:07:22;12.98;;;6.37;;
18754;SDS011;35061;47.664;9.166;2023-06-22T14:09:51;10.38;;;7.03;;
18754;SDS011;35061;47.664;9.166;2023-06-22T14:12:19;11.77;;;6.00;;
18754;SDS011;35061;47.664;9.166;2023-06-22T14:14:47;8.35;;;4.50;;
18754;SDS011;35061;47.664;9.166;2023-06-22T14:17:15;7.30;;;4.50;;
18754;SDS011;35061;47.664;9.166;2023-06-22T14:19:43;10.15;;;4.87;;
18754;SDS011;35061;47.664;9.166;2023-06-22T14:22:12;13.95;;;5.47;;
18754;SDS011;35061;47.664;9.166;2023-06-22T14:24:40;12.05;;;4.37;;
18754;SDS011;35061;47.664;9.166;2023-06-22T14:27:08;11.00;;;4.57;;
18754;SDS011;35061;47.664;9.166;2023-06-22T14:29:36;9.52;;;4.30;;
18754;SDS011;35061;47.664;9.166;2023-06-22T14:32:04;10.10;;;4.70;;
18754;SDS011;35061;47.664;9.166;2023-06-22T14:34:34;9.38;;;4.35;;
18754;SDS011;35061;47.664;9.166;2023-06-22T14:37:07;12.98;;;5.25;;
18754;SDS011;35061;47.664;9.166;2023-06-22T14:39:37;7.75;;;4.30;;
18754;SDS011;35061;47.664;9.166;2023-06-22T14:42:05;8.82;;;4.22;;
18754;SDS011;35061;47.664;9.166;2023-06-22T14:44:33;11.38;;;5.18;;
18754;SDS011;35061;47.664;9.166;2023-06-22T14:47:02;10.63;;;4.28;;
18754;SDS011;35061;47.664;9.166;2023-06-22T14:49:30;11.88;;;4.07;;
18754;SDS011;35061;47.664;9.166;2023-06-22T14:51:58;12.77;;;4.18;;
18754;SDS011;35061;47.664;9.166;2023-06-22T14:54:26;11.30;;;4.68;;